Terminal Aerodrome Forecast
Issued by NWS

Home | Current Version | Previous Version | Text Only | Print | Product List | Glossary On
Versions: 1 2 3 4 5 6 7 8 9 10 11 12 13 14 15 16 17 18 19
000
FTAK31 PAJN 020500
TAFAYA
TAF
PAYA 020530Z 0206/0306 00000KT P6SM SKC
     FM021300 07004KT P6SM SKC
     FM021800 09007KT P6SM SCT200
     FM030000 07012G20KT P6SM SCT100 BKN200
     FM030300 08010KT P6SM -RA BKN050 OVC080
      AMD LTD TO CLD VIS AND WIND 0206/0210=

USA.gov is the U.S. government's official web portal to all federal, state and local government web resources and services.